sensor_id;sensor_type;location;lat;lon;timestamp;P1;durP1;ratioP1;P2;durP2;ratioP2
64353;SDS011;50681;53.334;-6.536;2024-03-07T00:02:09;19.23;;;3.10;;
64353;SDS011;50681;53.334;-6.536;2024-03-07T00:04:35;16.27;;;2.75;;
64353;SDS011;50681;53.334;-6.536;2024-03-07T00:07:01;23.88;;;2.88;;
64353;SDS011;50681;53.334;-6.536;2024-03-07T00:09:33;16.92;;;2.65;;
64353;SDS011;50681;53.334;-6.536;2024-03-07T00:12:00;22.83;;;3.80;;
64353;SDS011;50681;53.334;-6.536;2024-03-07T00:14:26;23.00;;;3.38;;
64353;SDS011;50681;53.334;-6.536;2024-03-07T00:16:52;13.02;;;2.97;;
64353;SDS011;50681;53.334;-6.536;2024-03-07T00:21:43;20.88;;;4.10;;
64353;SDS011;50681;53.334;-6.536;2024-03-07T00:24:09;19.30;;;2.83;;
64353;SDS011;50681;53.334;-6.536;2024-03-07T00:26:35;18.15;;;3.17;;
64353;SDS011;50681;53.334;-6.536;2024-03-07T00:29:02;20.27;;;2.83;;
64353;SDS011;50681;53.334;-6.536;2024-03-07T00:31:27;22.90;;;5.32;;
64353;SDS011;50681;53.334;-6.536;2024-03-07T00:34:06;15.77;;;2.90;;
64353;SDS011;50681;53.334;-6.536;2024-03-07T00:36:31;22.45;;;2.72;;
64353;SDS011;50681;53.334;-6.536;2024-03-07T00:41:25;20.45;;;2.35;;
64353;SDS011;50681;53.334;-6.536;2024-03-07T00:43:51;21.15;;;3.15;;
64353;SDS011;50681;53.334;-6.536;2024-03-07T00:46:25;19.70;;;3.10;;
64353;SDS011;50681;53.334;-6.536;2024-03-07T00:48:50;34.13;;;3.10;;
64353;SDS011;50681;53.334;-6.536;2024-03-07T00:51:16;18.63;;;3.13;;
64353;SDS011;50681;53.334;-6.536;2024-03-07T00:53:41;18.40;;;3.10;;
64353;SDS011;50681;53.334;-6.536;2024-03-07T00:56:06;18.40;;;2.43;;
64353;SDS011;50681;53.334;-6.536;2024-03-07T00:58:32;17.70;;;2.83;;
64353;SDS011;50681;53.334;-6.536;2024-03-07T01:00:57;23.83;;;3.77;;
64353;SDS011;50681;53.334;-6.536;2024-03-07T01:03:23;20.75;;;3.28;;
64353;SDS011;50681;53.334;-6.536;2024-03-07T01:05:49;13.75;;;2.45;;
64353;SDS011;50681;53.334;-6.536;2024-03-07T01:08:15;17.52;;;2.80;;
64353;SDS011;50681;53.334;-6.536;2024-03-07T01:10:40;18.97;;;3.10;;
64353;SDS011;50681;53.334;-6.536;2024-03-07T01:13:06;20.80;;;3.13;;
64353;SDS011;50681;53.334;-6.536;2024-03-07T01:15:33;22.45;;;3.53;;
64353;SDS011;50681;53.334;-6.536;2024-03-07T01:20:24;21.67;;;3.10;;
64353;SDS011;50681;53.334;-6.536;2024-03-07T01:22:50;13.70;;;2.20;;
64353;SDS011;50681;53.334;-6.536;2024-03-07T01:25:16;22.40;;;2.78;;
64353;SDS011;50681;53.334;-6.536;2024-03-07T01:27:42;11.52;;;2.08;;
64353;SDS011;50681;53.334;-6.536;2024-03-07T01:30:08;16.13;;;2.13;;
64353;SDS011;50681;53.334;-6.536;2024-03-07T01:32:34;11.65;;;2.67;;
64353;SDS011;50681;53.334;-6.536;2024-03-07T01:34:59;20.07;;;2.97;;
64353;SDS011;50681;53.334;-6.536;2024-03-07T01:37:25;21.02;;;2.63;;
64353;SDS011;50681;53.334;-6.536;2024-03-07T01:39:51;15.68;;;2.65;;
64353;SDS011;50681;53.334;-6.536;2024-03-07T01:42:17;15.73;;;2.57;;
64353;SDS011;50681;53.334;-6.536;2024-03-07T01:44:42;12.67;;;2.40;;
64353;SDS011;50681;53.334;-6.536;2024-03-07T01:47:09;22.80;;;2.55;;
64353;SDS011;50681;53.334;-6.536;2024-03-07T01:49:35;16.15;;;3.13;;
64353;SDS011;50681;53.334;-6.536;2024-03-07T01:52:12;18.23;;;3.00;;
64353;SDS011;50681;53.334;-6.536;2024-03-07T01:54:38;26.67;;;2.90;;
64353;SDS011;50681;53.334;-6.536;2024-03-07T01:57:04;17.53;;;2.63;;
64353;SDS011;50681;53.334;-6.536;2024-03-07T01:59:30;17.85;;;2.78;;
64353;SDS011;50681;53.334;-6.536;2024-03-07T02:01:57;13.40;;;3.10;;
64353;SDS011;50681;53.334;-6.536;2024-03-07T02:04:23;17.63;;;3.08;;
64353;SDS011;50681;53.334;-6.536;2024-03-07T02:06:49;29.20;;;4.63;;
64353;SDS011;50681;53.334;-6.536;2024-03-07T02:09:15;19.00;;;2.83;;
64353;SDS011;50681;53.334;-6.536;2024-03-07T02:14:07;19.17;;;2.67;;
64353;SDS011;50681;53.334;-6.536;2024-03-07T02:16:33;13.87;;;2.40;;
64353;SDS011;50681;53.334;-6.536;2024-03-07T02:18:58;15.53;;;2.47;;
64353;SDS011;50681;53.334;-6.536;2024-03-07T02:21:24;14.75;;;3.08;;
64353;SDS011;50681;53.334;-6.536;2024-03-07T02:23:51;13.00;;;2.70;;
64353;SDS011;50681;53.334;-6.536;2024-03-07T02:26:16;17.20;;;2.40;;
64353;SDS011;50681;53.334;-6.536;2024-03-07T02:31:11;18.20;;;2.78;;
64353;SDS011;50681;53.334;-6.536;2024-03-07T02:33:37;15.82;;;2.75;;
64353;SDS011;50681;53.334;-6.536;2024-03-07T02:36:02;21.43;;;2.90;;
64353;SDS011;50681;53.334;-6.536;2024-03-07T02:38:28;21.17;;;3.08;;
64353;SDS011;50681;53.334;-6.536;2024-03-07T02:40:54;24.13;;;3.07;;
64353;SDS011;50681;53.334;-6.536;2024-03-07T02:43:20;29.40;;;3.83;;
64353;SDS011;50681;53.334;-6.536;2024-03-07T02:45:46;19.95;;;3.40;;
64353;SDS011;50681;53.334;-6.536;2024-03-07T02:48:11;21.00;;;3.77;;
64353;SDS011;50681;53.334;-6.536;2024-03-07T02:50:37;26.07;;;3.17;;
64353;SDS011;50681;53.334;-6.536;2024-03-07T02:53:05;23.45;;;3.17;;
64353;SDS011;50681;53.334;-6.536;2024-03-07T02:55:31;18.13;;;3.40;;
64353;SDS011;50681;53.334;-6.536;2024-03-07T03:00:24;27.27;;;3.13;;
64353;SDS011;50681;53.334;-6.536;2024-03-07T03:02:54;17.38;;;2.40;;
64353;SDS011;50681;53.334;-6.536;2024-03-07T03:05:21;26.67;;;3.35;;
64353;SDS011;50681;53.334;-6.536;2024-03-07T03:07:47;23.38;;;3.25;;
64353;SDS011;50681;53.334;-6.536;2024-03-07T03:10:20;20.13;;;2.55;;
64353;SDS011;50681;53.334;-6.536;2024-03-07T03:12:49;22.63;;;3.30;;
64353;SDS011;50681;53.334;-6.536;2024-03-07T03:15:15;26.43;;;3.23;;
64353;SDS011;50681;53.334;-6.536;2024-03-07T03:17:40;18.70;;;3.20;;
64353;SDS011;50681;53.334;-6.536;2024-03-07T03:20:06;24.40;;;3.40;;
64353;SDS011;50681;53.334;-6.536;2024-03-07T03:22:49;31.33;;;3.92;;
64353;SDS011;50681;53.334;-6.536;2024-03-07T03:25:18;25.60;;;3.47;;
64353;SDS011;50681;53.334;-6.536;2024-03-07T03:27:45;25.75;;;4.18;;
64353;SDS011;50681;53.334;-6.536;2024-03-07T03:30:10;22.50;;;4.23;;
64353;SDS011;50681;53.334;-6.536;2024-03-07T03:32:39;16.63;;;3.35;;
64353;SDS011;50681;53.334;-6.536;2024-03-07T03:35:06;24.38;;;4.00;;
64353;SDS011;50681;53.334;-6.536;2024-03-07T03:37:33;25.25;;;4.20;;
64353;SDS011;50681;53.334;-6.536;2024-03-07T03:39:58;21.80;;;3.27;;
64353;SDS011;50681;53.334;-6.536;2024-03-07T03:42:23;22.77;;;3.30;;
64353;SDS011;50681;53.334;-6.536;2024-03-07T03:44:49;24.07;;;4.23;;
64353;SDS011;50681;53.334;-6.536;2024-03-07T03:47:14;22.23;;;4.77;;
64353;SDS011;50681;53.334;-6.536;2024-03-07T03:49:40;20.27;;;3.47;;
64353;SDS011;50681;53.334;-6.536;2024-03-07T03:52:05;34.57;;;3.50;;
64353;SDS011;50681;53.334;-6.536;2024-03-07T03:54:31;16.23;;;3.13;;
64353;SDS011;50681;53.334;-6.536;2024-03-07T03:56:56;25.30;;;3.10;;
64353;SDS011;50681;53.334;-6.536;2024-03-07T03:59:24;26.75;;;3.40;;
64353;SDS011;50681;53.334;-6.536;2024-03-07T04:01:49;22.33;;;4.03;;
64353;SDS011;50681;53.334;-6.536;2024-03-07T04:04:14;17.73;;;3.73;;
64353;SDS011;50681;53.334;-6.536;2024-03-07T04:06:40;25.77;;;3.20;;
64353;SDS011;50681;53.334;-6.536;2024-03-07T04:09:05;19.33;;;3.43;;
64353;SDS011;50681;53.334;-6.536;2024-03-07T04:11:31;19.97;;;3.57;;
64353;SDS011;50681;53.334;-6.536;2024-03-07T04:13:57;16.77;;;3.10;;
64353;SDS011;50681;53.334;-6.536;2024-03-07T04:16:23;18.50;;;3.13;;
64353;SDS011;50681;53.334;-6.536;2024-03-07T04:18:48;17.90;;;4.13;;
64353;SDS011;50681;53.334;-6.536;2024-03-07T04:21:14;23.60;;;4.40;;
64353;SDS011;50681;53.334;-6.536;2024-03-07T04:23:42;26.97;;;3.90;;
64353;SDS011;50681;53.334;-6.536;2024-03-07T04:26:08;23.38;;;4.55;;
64353;SDS011;50681;53.334;-6.536;2024-03-07T04:28:34;29.60;;;3.73;;
64353;SDS011;50681;53.334;-6.536;2024-03-07T04:31:00;19.85;;;3.17;;
64353;SDS011;50681;53.334;-6.536;2024-03-07T04:39:40;27.25;;;4.40;;
64353;SDS011;50681;53.334;-6.536;2024-03-07T04:42:06;36.33;;;4.27;;
64353;SDS011;50681;53.334;-6.536;2024-03-07T04:44:33;18.10;;;3.13;;
64353;SDS011;50681;53.334;-6.536;2024-03-07T04:47:04;24.08;;;3.80;;
64353;SDS011;50681;53.334;-6.536;2024-03-07T04:49:30;18.73;;;3.50;;
64353;SDS011;50681;53.334;-6.536;2024-03-07T04:51:58;27.45;;;5.47;;
64353;SDS011;50681;53.334;-6.536;2024-03-07T04:54:24;23.75;;;3.90;;
64353;SDS011;50681;53.334;-6.536;2024-03-07T04:56:53;29.83;;;4.32;;
64353;SDS011;50681;53.334;-6.536;2024-03-07T04:59:19;28.02;;;4.53;;
64353;SDS011;50681;53.334;-6.536;2024-03-07T05:01:46;17.67;;;3.50;;
64353;SDS011;50681;53.334;-6.536;2024-03-07T05:04:13;27.05;;;4.13;;
64353;SDS011;50681;53.334;-6.536;2024-03-07T05:06:39;26.65;;;3.97;;
64353;SDS011;50681;53.334;-6.536;2024-03-07T05:09:05;20.80;;;3.47;;
64353;SDS011;50681;53.334;-6.536;2024-03-07T05:11:33;26.58;;;4.07;;
64353;SDS011;50681;53.334;-6.536;2024-03-07T05:13:59;26.55;;;4.00;;
64353;SDS011;50681;53.334;-6.536;2024-03-07T05:16:30;22.65;;;3.95;;
64353;SDS011;50681;53.334;-6.536;2024-03-07T05:18:59;24.27;;;3.58;;
64353;SDS011;50681;53.334;-6.536;2024-03-07T05:21:27;24.80;;;3.83;;
64353;SDS011;50681;53.334;-6.536;2024-03-07T05:23:59;19.58;;;3.55;;
64353;SDS011;50681;53.334;-6.536;2024-03-07T05:26:25;32.22;;;4.97;;
64353;SDS011;50681;53.334;-6.536;2024-03-07T05:29:05;24.05;;;4.10;;
64353;SDS011;50681;53.334;-6.536;2024-03-07T05:31:35;15.50;;;3.33;;
64353;SDS011;50681;53.334;-6.536;2024-03-07T05:34:12;30.63;;;4.07;;
64353;SDS011;50681;53.334;-6.536;2024-03-07T05:36:39;22.65;;;4.13;;
64353;SDS011;50681;53.334;-6.536;2024-03-07T05:39:10;23.05;;;3.95;;
64353;SDS011;50681;53.334;-6.536;2024-03-07T05:41:36;28.92;;;3.45;;
64353;SDS011;50681;53.334;-6.536;2024-03-07T05:44:06;22.58;;;3.45;;
64353;SDS011;50681;53.334;-6.536;2024-03-07T05:46:37;19.45;;;3.13;;
64353;SDS011;50681;53.334;-6.536;2024-03-07T05:49:07;16.98;;;3.55;;
64353;SDS011;50681;53.334;-6.536;2024-03-07T05:53:58;21.63;;;3.65;;
64353;SDS011;50681;53.334;-6.536;2024-03-07T05:56:24;22.77;;;4.07;;
64353;SDS011;50681;53.334;-6.536;2024-03-07T05:58:49;29.93;;;3.57;;
64353;SDS011;50681;53.334;-6.536;2024-03-07T06:01:16;20.90;;;3.38;;
64353;SDS011;50681;53.334;-6.536;2024-03-07T06:03:43;22.85;;;3.72;;
64353;SDS011;50681;53.334;-6.536;2024-03-07T06:06:09;26.58;;;3.15;;
64353;SDS011;50681;53.334;-6.536;2024-03-07T06:08:36;32.75;;;3.63;;
64353;SDS011;50681;53.334;-6.536;2024-03-07T06:11:02;22.85;;;3.80;;
64353;SDS011;50681;53.334;-6.536;2024-03-07T06:13:28;26.90;;;3.97;;
64353;SDS011;50681;53.334;-6.536;2024-03-07T06:15:53;13.73;;;3.43;;
64353;SDS011;50681;53.334;-6.536;2024-03-07T06:18:19;19.97;;;3.70;;
64353;SDS011;50681;53.334;-6.536;2024-03-07T06:20:44;12.07;;;3.20;;
64353;SDS011;50681;53.334;-6.536;2024-03-07T06:23:10;27.15;;;3.05;;
64353;SDS011;50681;53.334;-6.536;2024-03-07T06:25:41;28.85;;;4.20;;
64353;SDS011;50681;53.334;-6.536;2024-03-07T06:28:14;24.00;;;3.90;;
64353;SDS011;50681;53.334;-6.536;2024-03-07T06:30:40;20.10;;;3.93;;
64353;SDS011;50681;53.334;-6.536;2024-03-07T06:33:08;21.15;;;4.07;;
64353;SDS011;50681;53.334;-6.536;2024-03-07T06:38:02;26.77;;;4.13;;
64353;SDS011;50681;53.334;-6.536;2024-03-07T06:42:54;18.45;;;3.67;;
64353;SDS011;50681;53.334;-6.536;2024-03-07T06:45:20;25.00;;;4.25;;
64353;SDS011;50681;53.334;-6.536;2024-03-07T06:47:46;20.87;;;3.97;;
64353;SDS011;50681;53.334;-6.536;2024-03-07T06:50:12;21.83;;;3.55;;
64353;SDS011;50681;53.334;-6.536;2024-03-07T06:52:44;21.33;;;3.60;;
64353;SDS011;50681;53.334;-6.536;2024-03-07T06:55:12;25.70;;;3.42;;
64353;SDS011;50681;53.334;-6.536;2024-03-07T06:57:40;24.75;;;4.18;;
64353;SDS011;50681;53.334;-6.536;2024-03-07T07:00:06;16.63;;;3.25;;
64353;SDS011;50681;53.334;-6.536;2024-03-07T07:02:39;25.15;;;3.97;;
64353;SDS011;50681;53.334;-6.536;2024-03-07T07:05:07;33.10;;;4.70;;
64353;SDS011;50681;53.334;-6.536;2024-03-07T07:07:49;22.83;;;4.10;;
64353;SDS011;50681;53.334;-6.536;2024-03-07T07:10:16;23.92;;;4.20;;
64353;SDS011;50681;53.334;-6.536;2024-03-07T07:15:09;33.60;;;4.30;;
64353;SDS011;50681;53.334;-6.536;2024-03-07T07:17:36;17.52;;;3.38;;
64353;SDS011;50681;53.334;-6.536;2024-03-07T07:20:01;25.40;;;4.20;;
64353;SDS011;50681;53.334;-6.536;2024-03-07T07:22:31;22.77;;;4.40;;
64353;SDS011;50681;53.334;-6.536;2024-03-07T07:24:56;22.13;;;3.30;;
64353;SDS011;50681;53.334;-6.536;2024-03-07T07:27:22;30.40;;;4.53;;
64353;SDS011;50681;53.334;-6.536;2024-03-07T07:29:48;26.45;;;3.90;;
64353;SDS011;50681;53.334;-6.536;2024-03-07T07:32:13;28.10;;;4.53;;
64353;SDS011;50681;53.334;-6.536;2024-03-07T07:34:39;17.87;;;4.33;;
64353;SDS011;50681;53.334;-6.536;2024-03-07T07:37:04;23.67;;;3.90;;
64353;SDS011;50681;53.334;-6.536;2024-03-07T07:39:30;23.73;;;4.03;;
64353;SDS011;50681;53.334;-6.536;2024-03-07T07:41:56;20.08;;;3.90;;
64353;SDS011;50681;53.334;-6.536;2024-03-07T07:44:22;26.77;;;4.90;;
64353;SDS011;50681;53.334;-6.536;2024-03-07T07:46:48;18.73;;;4.93;;
64353;SDS011;50681;53.334;-6.536;2024-03-07T07:51:41;22.25;;;4.57;;
64353;SDS011;50681;53.334;-6.536;2024-03-07T07:54:07;15.80;;;3.78;;
64353;SDS011;50681;53.334;-6.536;2024-03-07T07:56:34;22.27;;;4.75;;
64353;SDS011;50681;53.334;-6.536;2024-03-07T07:59:00;26.85;;;5.40;;
64353;SDS011;50681;53.334;-6.536;2024-03-07T08:01:29;20.88;;;4.30;;
64353;SDS011;50681;53.334;-6.536;2024-03-07T08:03:55;27.15;;;4.60;;
64353;SDS011;50681;53.334;-6.536;2024-03-07T08:06:20;16.77;;;4.30;;
64353;SDS011;50681;53.334;-6.536;2024-03-07T08:08:46;17.57;;;4.17;;
64353;SDS011;50681;53.334;-6.536;2024-03-07T08:11:11;35.13;;;5.20;;
64353;SDS011;50681;53.334;-6.536;2024-03-07T08:13:39;14.98;;;4.05;;
64353;SDS011;50681;53.334;-6.536;2024-03-07T08:16:05;13.82;;;3.75;;
64353;SDS011;50681;53.334;-6.536;2024-03-07T08:18:31;20.45;;;4.20;;
64353;SDS011;50681;53.334;-6.536;2024-03-07T08:20:57;16.47;;;4.97;;
64353;SDS011;50681;53.334;-6.536;2024-03-07T08:23:22;15.53;;;4.00;;
64353;SDS011;50681;53.334;-6.536;2024-03-07T08:25:50;19.08;;;4.80;;
64353;SDS011;50681;53.334;-6.536;2024-03-07T08:28:16;19.77;;;4.77;;
64353;SDS011;50681;53.334;-6.536;2024-03-07T08:30:41;10.77;;;3.90;;
64353;SDS011;50681;53.334;-6.536;2024-03-07T08:33:07;15.53;;;4.13;;
64353;SDS011;50681;53.334;-6.536;2024-03-07T08:35:32;17.92;;;5.00;;
64353;SDS011;50681;53.334;-6.536;2024-03-07T08:37:58;17.63;;;4.55;;
64353;SDS011;50681;53.334;-6.536;2024-03-07T08:40:24;18.70;;;3.97;;
64353;SDS011;50681;53.334;-6.536;2024-03-07T08:42:52;19.65;;;4.75;;
64353;SDS011;50681;53.334;-6.536;2024-03-07T08:45:21;15.30;;;4.55;;
64353;SDS011;50681;53.334;-6.536;2024-03-07T08:47:47;19.10;;;5.57;;
64353;SDS011;50681;53.334;-6.536;2024-03-07T08:50:14;19.45;;;4.25;;
64353;SDS011;50681;53.334;-6.536;2024-03-07T08:52:43;15.73;;;4.10;;
64353;SDS011;50681;53.334;-6.536;2024-03-07T08:55:11;15.43;;;4.45;;
64353;SDS011;50681;53.334;-6.536;2024-03-07T08:57:39;20.17;;;4.38;;
64353;SDS011;50681;53.334;-6.536;2024-03-07T09:00:06;23.77;;;5.65;;
64353;SDS011;50681;53.334;-6.536;2024-03-07T09:02:56;18.27;;;4.70;;
64353;SDS011;50681;53.334;-6.536;2024-03-07T09:05:23;20.52;;;4.85;;
64353;SDS011;50681;53.334;-6.536;2024-03-07T09:07:49;24.88;;;5.18;;
64353;SDS011;50681;53.334;-6.536;2024-03-07T09:10:19;19.02;;;4.53;;
64353;SDS011;50681;53.334;-6.536;2024-03-07T09:12:46;15.00;;;4.15;;
64353;SDS011;50681;53.334;-6.536;2024-03-07T09:15:25;17.20;;;5.10;;
64353;SDS011;50681;53.334;-6.536;2024-03-07T09:17:51;22.83;;;6.47;;
64353;SDS011;50681;53.334;-6.536;2024-03-07T09:20:17;15.67;;;4.90;;
64353;SDS011;50681;53.334;-6.536;2024-03-07T09:22:44;19.80;;;4.20;;
64353;SDS011;50681;53.334;-6.536;2024-03-07T09:25:10;15.68;;;4.47;;
64353;SDS011;50681;53.334;-6.536;2024-03-07T09:27:36;23.87;;;5.30;;
64353;SDS011;50681;53.334;-6.536;2024-03-07T09:30:03;16.95;;;5.07;;
64353;SDS011;50681;53.334;-6.536;2024-03-07T09:32:29;16.85;;;4.55;;
64353;SDS011;50681;53.334;-6.536;2024-03-07T09:34:58;14.00;;;4.38;;
64353;SDS011;50681;53.334;-6.536;2024-03-07T09:37:23;15.23;;;4.27;;
64353;SDS011;50681;53.334;-6.536;2024-03-07T09:39:49;12.47;;;3.50;;
64353;SDS011;50681;53.334;-6.536;2024-03-07T09:42:14;12.53;;;4.33;;
64353;SDS011;50681;53.334;-6.536;2024-03-07T09:44:43;14.27;;;3.97;;
64353;SDS011;50681;53.334;-6.536;2024-03-07T09:47:10;14.30;;;3.67;;
64353;SDS011;50681;53.334;-6.536;2024-03-07T09:49:37;15.77;;;4.43;;
64353;SDS011;50681;53.334;-6.536;2024-03-07T09:52:06;14.53;;;4.33;;
64353;SDS011;50681;53.334;-6.536;2024-03-07T09:54:37;12.77;;;3.95;;
64353;SDS011;50681;53.334;-6.536;2024-03-07T09:57:03;11.98;;;3.65;;
64353;SDS011;50681;53.334;-6.536;2024-03-07T09:59:33;13.70;;;3.92;;
64353;SDS011;50681;53.334;-6.536;2024-03-07T10:02:01;15.43;;;4.38;;
64353;SDS011;50681;53.334;-6.536;2024-03-07T10:04:51;18.63;;;4.35;;
64353;SDS011;50681;53.334;-6.536;2024-03-07T10:07:17;17.98;;;4.35;;
64353;SDS011;50681;53.334;-6.536;2024-03-07T10:09:43;13.57;;;4.15;;
64353;SDS011;50681;53.334;-6.536;2024-03-07T10:12:10;9.88;;;4.55;;
64353;SDS011;50681;53.334;-6.536;2024-03-07T10:14:47;13.30;;;4.30;;
64353;SDS011;50681;53.334;-6.536;2024-03-07T10:17:14;16.98;;;4.60;;
64353;SDS011;50681;53.334;-6.536;2024-03-07T10:19:40;14.10;;;4.40;;
64353;SDS011;50681;53.334;-6.536;2024-03-07T10:22:06;16.25;;;4.65;;
64353;SDS011;50681;53.334;-6.536;2024-03-07T10:24:31;12.20;;;4.67;;
64353;SDS011;50681;53.334;-6.536;2024-03-07T10:26:57;16.35;;;5.47;;
64353;SDS011;50681;53.334;-6.536;2024-03-07T10:29:23;13.00;;;5.13;;
64353;SDS011;50681;53.334;-6.536;2024-03-07T10:31:49;14.70;;;5.77;;
64353;SDS011;50681;53.334;-6.536;2024-03-07T10:34:14;18.23;;;5.57;;
64353;SDS011;50681;53.334;-6.536;2024-03-07T10:36:43;12.80;;;5.75;;
64353;SDS011;50681;53.334;-6.536;2024-03-07T10:39:09;14.60;;;5.45;;
64353;SDS011;50681;53.334;-6.536;2024-03-07T10:41:44;18.25;;;5.45;;
64353;SDS011;50681;53.334;-6.536;2024-03-07T10:44:13;16.88;;;5.18;;
64353;SDS011;50681;53.334;-6.536;2024-03-07T10:46:53;12.07;;;5.40;;
64353;SDS011;50681;53.334;-6.536;2024-03-07T10:49:20;16.63;;;5.38;;
64353;SDS011;50681;53.334;-6.536;2024-03-07T10:51:52;15.75;;;5.85;;
64353;SDS011;50681;53.334;-6.536;2024-03-07T10:54:50;22.17;;;6.57;;
64353;SDS011;50681;53.334;-6.536;2024-03-07T10:57:30;19.42;;;6.30;;
64353;SDS011;50681;53.334;-6.536;2024-03-07T11:00:04;18.07;;;6.47;;
64353;SDS011;50681;53.334;-6.536;2024-03-07T11:02:49;18.52;;;6.20;;
64353;SDS011;50681;53.334;-6.536;2024-03-07T11:05:20;18.35;;;7.00;;
64353;SDS011;50681;53.334;-6.536;2024-03-07T11:07:49;23.50;;;6.57;;
64353;SDS011;50681;53.334;-6.536;2024-03-07T11:10:16;17.17;;;6.10;;
64353;SDS011;50681;53.334;-6.536;2024-03-07T11:12:46;18.35;;;5.75;;
64353;SDS011;50681;53.334;-6.536;2024-03-07T11:15:16;16.05;;;6.22;;
64353;SDS011;50681;53.334;-6.536;2024-03-07T11:17:45;19.13;;;6.10;;
64353;SDS011;50681;53.334;-6.536;2024-03-07T11:20:29;15.85;;;6.03;;
64353;SDS011;50681;53.334;-6.536;2024-03-07T11:23:00;19.48;;;6.32;;
64353;SDS011;50681;53.334;-6.536;2024-03-07T11:25:26;16.03;;;5.70;;
64353;SDS011;50681;53.334;-6.536;2024-03-07T11:27:53;21.05;;;6.07;;
64353;SDS011;50681;53.334;-6.536;2024-03-07T11:30:20;16.67;;;5.47;;
64353;SDS011;50681;53.334;-6.536;2024-03-07T11:32:47;13.68;;;6.63;;
64353;SDS011;50681;53.334;-6.536;2024-03-07T11:35:15;16.23;;;6.50;;
64353;SDS011;50681;53.334;-6.536;2024-03-07T11:37:41;15.15;;;6.35;;
64353;SDS011;50681;53.334;-6.536;2024-03-07T11:42:48;12.57;;;6.30;;
64353;SDS011;50681;53.334;-6.536;2024-03-07T11:45:14;17.83;;;6.07;;
64353;SDS011;50681;53.334;-6.536;2024-03-07T11:47:55;15.48;;;6.00;;
64353;SDS011;50681;53.334;-6.536;2024-03-07T11:50:34;19.30;;;6.60;;
64353;SDS011;50681;53.334;-6.536;2024-03-07T11:53:02;25.25;;;6.18;;
64353;SDS011;50681;53.334;-6.536;2024-03-07T11:55:33;15.98;;;6.03;;
64353;SDS011;50681;53.334;-6.536;2024-03-07T12:00:47;14.02;;;5.80;;
64353;SDS011;50681;53.334;-6.536;2024-03-07T12:03:14;17.77;;;6.70;;
64353;SDS011;50681;53.334;-6.536;2024-03-07T12:05:43;15.45;;;6.70;;
64353;SDS011;50681;53.334;-6.536;2024-03-07T12:08:10;19.02;;;6.63;;
64353;SDS011;50681;53.334;-6.536;2024-03-07T12:13:02;17.08;;;6.90;;
64353;SDS011;50681;53.334;-6.536;2024-03-07T12:15:49;14.52;;;7.10;;
64353;SDS011;50681;53.334;-6.536;2024-03-07T12:18:16;16.27;;;6.60;;
64353;SDS011;50681;53.334;-6.536;2024-03-07T12:20:44;18.35;;;6.70;;
64353;SDS011;50681;53.334;-6.536;2024-03-07T12:23:15;26.52;;;8.07;;
64353;SDS011;50681;53.334;-6.536;2024-03-07T12:25:44;22.95;;;6.88;;
64353;SDS011;50681;53.334;-6.536;2024-03-07T12:28:13;14.73;;;6.88;;
64353;SDS011;50681;53.334;-6.536;2024-03-07T12:33:10;18.52;;;6.72;;
64353;SDS011;50681;53.334;-6.536;2024-03-07T12:35:39;19.35;;;6.68;;
64353;SDS011;50681;53.334;-6.536;2024-03-07T12:38:07;16.20;;;6.07;;
64353;SDS011;50681;53.334;-6.536;2024-03-07T12:40:35;19.13;;;6.82;;
64353;SDS011;50681;53.334;-6.536;2024-03-07T12:45:28;15.45;;;6.30;;
64353;SDS011;50681;53.334;-6.536;2024-03-07T12:47:54;19.35;;;7.05;;
64353;SDS011;50681;53.334;-6.536;2024-03-07T12:50:21;14.40;;;7.03;;
64353;SDS011;50681;53.334;-6.536;2024-03-07T12:52:47;15.93;;;7.03;;
64353;SDS011;50681;53.334;-6.536;2024-03-07T12:55:16;18.35;;;6.53;;
64353;SDS011;50681;53.334;-6.536;2024-03-07T12:57:46;23.13;;;7.32;;
64353;SDS011;50681;53.334;-6.536;2024-03-07T13:00:17;22.58;;;7.07;;
64353;SDS011;50681;53.334;-6.536;2024-03-07T13:02:46;16.92;;;6.43;;
64353;SDS011;50681;53.334;-6.536;2024-03-07T13:05:12;19.10;;;7.05;;
64353;SDS011;50681;53.334;-6.536;2024-03-07T13:07:46;18.35;;;7.63;;
64353;SDS011;50681;53.334;-6.536;2024-03-07T13:10:12;13.60;;;6.68;;
64353;SDS011;50681;53.334;-6.536;2024-03-07T13:12:43;27.52;;;6.63;;
64353;SDS011;50681;53.334;-6.536;2024-03-07T13:15:10;17.45;;;6.30;;
64353;SDS011;50681;53.334;-6.536;2024-03-07T13:17:38;16.27;;;7.25;;
64353;SDS011;50681;53.334;-6.536;2024-03-07T13:20:04;17.07;;;7.23;;
64353;SDS011;50681;53.334;-6.536;2024-03-07T13:22:37;14.70;;;6.70;;
64353;SDS011;50681;53.334;-6.536;2024-03-07T13:25:19;18.52;;;6.75;;
64353;SDS011;50681;53.334;-6.536;2024-03-07T13:27:57;11.70;;;5.80;;
64353;SDS011;50681;53.334;-6.536;2024-03-07T13:30:41;13.45;;;6.50;;
64353;SDS011;50681;53.334;-6.536;2024-03-07T13:33:08;17.92;;;6.75;;
64353;SDS011;50681;53.334;-6.536;2024-03-07T13:35:38;18.60;;;7.88;;
64353;SDS011;50681;53.334;-6.536;2024-03-07T13:40:34;13.50;;;7.00;;
64353;SDS011;50681;53.334;-6.536;2024-03-07T13:43:19;17.08;;;7.32;;
64353;SDS011;50681;53.334;-6.536;2024-03-07T13:45:47;21.85;;;8.38;;
64353;SDS011;50681;53.334;-6.536;2024-03-07T13:48:13;12.77;;;6.93;;
64353;SDS011;50681;53.334;-6.536;2024-03-07T13:50:39;19.08;;;7.68;;
64353;SDS011;50681;53.334;-6.536;2024-03-07T13:53:09;21.48;;;7.40;;
64353;SDS011;50681;53.334;-6.536;2024-03-07T13:55:45;18.05;;;9.10;;
64353;SDS011;50681;53.334;-6.536;2024-03-07T13:58:13;19.73;;;8.63;;
64353;SDS011;50681;53.334;-6.536;2024-03-07T14:00:54;17.90;;;8.70;;
64353;SDS011;50681;53.334;-6.536;2024-03-07T14:03:53;18.25;;;8.93;;
64353;SDS011;50681;53.334;-6.536;2024-03-07T14:16:12;16.13;;;7.63;;
64353;SDS011;50681;53.334;-6.536;2024-03-07T14:24:36;19.83;;;8.90;;
64353;SDS011;50681;53.334;-6.536;2024-03-07T14:27:21;14.55;;;7.82;;
64353;SDS011;50681;53.334;-6.536;2024-03-07T14:29:58;16.45;;;9.20;;
64353;SDS011;50681;53.334;-6.536;2024-03-07T14:33:06;20.88;;;10.02;;
64353;SDS011;50681;53.334;-6.536;2024-03-07T14:41:51;15.88;;;9.35;;
64353;SDS011;50681;53.334;-6.536;2024-03-07T14:44:22;17.63;;;10.35;;
64353;SDS011;50681;53.334;-6.536;2024-03-07T14:47:03;25.42;;;9.80;;
64353;SDS011;50681;53.334;-6.536;2024-03-07T14:49:32;17.45;;;8.98;;
64353;SDS011;50681;53.334;-6.536;2024-03-07T14:52:00;16.85;;;8.63;;
64353;SDS011;50681;53.334;-6.536;2024-03-07T14:54:28;18.52;;;10.40;;
64353;SDS011;50681;53.334;-6.536;2024-03-07T14:56:54;21.65;;;9.63;;
64353;SDS011;50681;53.334;-6.536;2024-03-07T14:59:20;20.25;;;11.02;;
64353;SDS011;50681;53.334;-6.536;2024-03-07T15:01:47;24.23;;;9.93;;
64353;SDS011;50681;53.334;-6.536;2024-03-07T15:04:13;20.17;;;10.65;;
64353;SDS011;50681;53.334;-6.536;2024-03-07T15:06:41;24.48;;;10.70;;
64353;SDS011;50681;53.334;-6.536;2024-03-07T15:09:17;20.23;;;10.43;;
64353;SDS011;50681;53.334;-6.536;2024-03-07T15:11:44;17.58;;;9.30;;
64353;SDS011;50681;53.334;-6.536;2024-03-07T15:16:43;20.23;;;11.13;;
64353;SDS011;50681;53.334;-6.536;2024-03-07T15:19:09;21.88;;;11.30;;
64353;SDS011;50681;53.334;-6.536;2024-03-07T15:21:35;23.23;;;11.80;;
64353;SDS011;50681;53.334;-6.536;2024-03-07T15:24:05;24.92;;;13.00;;
64353;SDS011;50681;53.334;-6.536;2024-03-07T15:26:31;18.95;;;9.73;;
64353;SDS011;50681;53.334;-6.536;2024-03-07T15:28:59;23.13;;;12.55;;
64353;SDS011;50681;53.334;-6.536;2024-03-07T15:34:29;21.83;;;12.18;;
64353;SDS011;50681;53.334;-6.536;2024-03-07T15:37:02;23.80;;;12.38;;
64353;SDS011;50681;53.334;-6.536;2024-03-07T15:39:29;23.88;;;12.25;;
64353;SDS011;50681;53.334;-6.536;2024-03-07T15:44:24;24.23;;;12.40;;
64353;SDS011;50681;53.334;-6.536;2024-03-07T15:46:50;25.55;;;13.77;;